Time,TemperatureF,DewpointF,PressureIn,WindDirection,WindDirectionDegrees,WindSpeedMPH,WindSpeedGustMPH,Humidity,HourlyPrecipIn,Conditions,Clouds,dailyrainin,SoftwareType,DateUTC
2013-11-24 00:04:00,62.6,53.5,25.07,SE,131,3.6,5.4,72,0.00,,---,0.00,VWS V14.01,2013-11-24 06:04:00,
2013-11-24 00:09:00,62.4,54.4,25.07,ESE,112,8.3,8.3,75,0.00,,---,0.00,VWS V14.01,2013-11-24 06:09:00,
2013-11-24 00:14:00,62.2,55.7,25.07,ESE,103,3.1,4.9,79,0.00,,---,0.00,VWS V14.01,2013-11-24 06:14:00,
2013-11-24 00:19:00,62.2,55.7,25.07,North,357,3.1,3.1,79,0.00,,---,0.00,VWS V14.01,2013-11-24 06:19:00,
2013-11-24 00:25:00,62.1,55.5,25.07,East,90,3.1,4.9,79,0.00,,---,0.00,VWS V14.01,2013-11-24 06:25:00,
2013-11-24 00:30:00,62.1,55.1,25.07,ESE,117,3.1,3.1,78,0.00,,---,0.00,VWS V14.01,2013-11-24 06:30:00,
2013-11-24 00:35:00,62.4,54.8,25.07,ESE,117,3.1,3.1,76,0.00,,---,0.00,VWS V14.01,2013-11-24 06:35:00,
2013-11-24 00:40:00,62.4,54.8,25.07,ESE,102,6.3,6.7,76,0.00,,---,0.00,VWS V14.01,2013-11-24 06:40:00,
2013-11-24 00:45:00,62.4,54.4,25.07,East,101,3.6,3.6,75,0.00,,---,0.00,VWS V14.01,2013-11-24 06:45:00,
2013-11-24 00:50:00,62.4,54.0,25.07,ESE,112,2.7,3.1,74,0.00,,---,0.00,VWS V14.01,2013-11-24 06:50:00,
2013-11-24 00:55:00,62.4,53.7,25.07,SE,135,2.7,2.7,73,0.00,,---,0.00,VWS V14.01,2013-11-24 06:55:00,
2013-11-24 01:00:00,62.4,53.7,25.07,NE,39,4.0,4.9,73,0.00,,---,0.00,VWS V14.01,2013-11-24 07:00:00,
2013-11-24 01:05:00,62.4,53.7,25.07,ESE,102,0.0,0.0,73,0.00,,---,0.00,VWS V14.01,2013-11-24 07:05:00,
2013-11-24 01:11:00,62.2,53.5,25.07,ESE,102,3.1,3.1,73,0.00,,---,0.00,VWS V14.01,2013-11-24 07:11:00,
2013-11-24 01:16:00,62.2,53.1,25.07,East,97,3.6,3.6,72,0.00,,---,0.00,VWS V14.01,2013-11-24 07:16:00,
2013-11-24 01:21:00,62.2,52.3,25.04,SSE,147,8.1,8.1,70,0.00,,---,0.00,VWS V14.01,2013-11-24 07:21:00,
2013-11-24 01:26:00,62.6,51.9,25.04,SE,137,2.2,2.2,68,0.00,,---,0.00,VWS V14.01,2013-11-24 07:26:00,
2013-11-24 01:31:00,62.6,51.5,25.04,East,99,4.9,4.9,67,0.00,,---,0.00,VWS V14.01,2013-11-24 07:31:00,
2013-11-24 01:36:00,62.4,51.3,25.04,ENE,74,4.9,4.9,67,0.00,,---,0.00,VWS V14.01,2013-11-24 07:36:00,
2013-11-24 01:41:00,62.4,51.3,25.04,SE,137,2.7,3.6,67,0.00,,---,0.00,VWS V14.01,2013-11-24 07:41:00,
2013-11-24 01:46:00,62.4,51.7,25.04,ENE,74,3.1,3.1,68,0.00,,---,0.00,VWS V14.01,2013-11-24 07:46:00,
2013-11-24 01:52:00,62.6,51.5,25.04,South,188,2.7,4.9,67,0.00,,---,0.00,VWS V14.01,2013-11-24 07:52:00,
2013-11-24 01:57:00,62.8,51.3,25.04,East,80,3.1,3.6,66,0.00,,---,0.00,VWS V14.01,2013-11-24 07:57:00,
2013-11-24 02:02:00,63.0,51.4,25.04,SE,134,3.6,3.6,66,0.00,,---,0.00,VWS V14.01,2013-11-24 08:02:00,
2013-11-24 02:07:00,63.0,51.4,25.04,ENE,67,3.6,5.8,66,0.00,,---,0.00,VWS V14.01,2013-11-24 08:07:00,
2013-11-24 02:12:00,63.0,52.2,25.04,SE,142,3.1,3.1,68,0.00,,---,0.00,VWS V14.01,2013-11-24 08:12:00,
2013-11-24 02:17:00,63.0,52.2,25.04,ESE,112,2.7,5.8,68,0.00,,---,0.00,VWS V14.01,2013-11-24 08:17:00,
2013-11-24 02:22:00,62.8,52.9,25.04,SE,130,4.0,4.9,70,0.00,,---,0.00,VWS V14.01,2013-11-24 08:22:00,
2013-11-24 02:27:00,62.8,51.7,25.04,South,184,3.1,3.1,67,0.00,,---,0.00,VWS V14.01,2013-11-24 08:27:00,
2013-11-24 02:32:00,63.0,51.4,25.04,SE,131,5.4,5.8,66,0.00,,---,0.00,VWS V14.01,2013-11-24 08:32:00,
2013-11-24 02:38:00,63.1,51.2,25.04,SE,129,5.4,6.7,65,0.00,,---,0.00,VWS V14.01,2013-11-24 08:38:00,
2013-11-24 02:43:00,63.1,50.8,25.04,SE,142,5.4,11.0,64,0.00,,---,0.00,VWS V14.01,2013-11-24 08:43:00,
2013-11-24 02:48:00,63.1,50.8,25.04,East,97,0.0,4.0,64,0.00,,---,0.00,VWS V14.01,2013-11-24 08:48:00,
2013-11-24 02:53:00,62.8,50.4,25.04,ESE,112,2.7,2.7,64,0.00,,---,0.00,VWS V14.01,2013-11-24 08:53:00,
2013-11-24 02:58:00,62.6,50.7,25.04,ENE,66,3.1,3.1,65,0.00,,---,0.00,VWS V14.01,2013-11-24 08:58:00,
2013-11-24 03:03:00,62.4,50.9,25.04,NE,36,3.1,3.1,66,0.00,,---,0.00,VWS V14.01,2013-11-24 09:03:00,
2013-11-24 03:08:00,62.2,50.8,25.04,East,83,2.7,4.0,66,0.00,,---,0.00,VWS V14.01,2013-11-24 09:08:00,
2013-11-24 03:13:00,62.6,50.8,25.04,East,101,6.3,6.3,63,0.00,,---,0.00,VWS V14.01,2013-11-24 09:13:00,
2013-11-24 03:18:00,63.0,50.8,25.04,NNE,30,2.2,2.2,62,0.00,,---,0.00,VWS V14.01,2013-11-24 09:18:00,
2013-11-24 03:24:00,63.3,50.8,25.04,ENE,70,3.1,6.3,59,0.00,,---,0.00,VWS V14.01,2013-11-24 09:24:00,
2013-11-24 03:29:00,63.5,50.8,25.04,ENE,61,2.7,2.7,58,0.00,,---,0.00,VWS V14.01,2013-11-24 09:29:00,
2013-11-24 05:22:00,62.8,50.3,25.07,SSE,165,2.7,3.1,59,0.00,,---,0.00,VWS V14.01,2013-11-24 11:22:00,
2013-11-24 05:27:00,63.0,50.3,25.07,SE,131,6.3,6.3,58,0.00,,---,0.00,VWS V14.01,2013-11-24 11:27:00,
2013-11-24 05:32:00,63.3,50.3,25.07,SE,126,11.0,11.0,56,0.00,,---,0.00,VWS V14.01,2013-11-24 11:32:00,
2013-11-24 05:38:00,63.7,50.3,25.07,SSE,155,2.2,4.0,56,0.00,,---,0.00,VWS V14.01,2013-11-24 11:38:00,
2013-11-24 05:43:00,63.5,50.3,25.07,East,90,4.0,4.0,57,0.00,,---,0.00,VWS V14.01,2013-11-24 11:43:00,
2013-11-24 05:48:00,63.3,50.3,25.07,East,97,3.1,3.1,60,0.00,,---,0.00,VWS V14.01,2013-11-24 11:48:00,
2013-11-24 05:53:00,62.6,50.0,25.10,ENE,76,5.4,5.4,63,0.00,,---,0.00,VWS V14.01,2013-11-24 11:53:00,
2013-11-24 05:58:00,62.2,50.3,25.10,SSE,152,3.6,10.1,64,0.00,,---,0.00,VWS V14.01,2013-11-24 11:58:00,
2013-11-24 06:03:00,62.2,50.8,25.07,NNE,31,2.7,2.7,66,0.00,,---,0.00,VWS V14.01,2013-11-24 12:03:00,
2013-11-24 06:08:00,62.1,51.4,25.07,East,95,4.0,4.0,68,0.00,,---,0.00,VWS V14.01,2013-11-24 12:08:00,
2013-11-24 06:13:00,62.1,52.2,25.07,ENE,67,6.3,6.3,70,0.00,,---,0.00,VWS V14.01,2013-11-24 12:13:00,
2013-11-24 06:18:00,62.1,52.6,25.07,East,97,4.0,5.8,71,0.00,,---,0.00,VWS V14.01,2013-11-24 12:18:00,
2013-11-24 06:23:00,62.1,52.6,25.07,ESE,109,3.6,3.6,71,0.00,,---,0.00,VWS V14.01,2013-11-24 12:23:00,
2013-11-24 06:28:00,62.2,52.7,25.10,ESE,117,3.1,3.1,71,0.00,,---,0.00,VWS V14.01,2013-11-24 12:28:00,
2013-11-24 06:34:00,63.1,52.8,25.10,ENE,60,4.0,7.2,69,0.00,,---,0.00,VWS V14.01,2013-11-24 12:34:00,
2013-11-24 06:39:00,63.1,52.8,25.10,NE,47,4.9,4.9,69,0.00,,---,0.00,VWS V14.01,2013-11-24 12:39:00,
2013-11-24 06:44:00,64.6,51.7,25.10,ESE,113,3.6,3.6,63,0.00,,---,0.00,VWS V14.01,2013-11-24 12:44:00,
2013-11-24 06:49:00,64.9,50.3,25.10,NNE,30,5.4,5.4,59,0.00,,---,0.00,VWS V14.01,2013-11-24 12:49:00,
2013-11-24 06:54:00,65.1,50.5,25.10,SSE,157,3.1,3.1,59,0.00,,---,0.00,VWS V14.01,2013-11-24 12:54:00,
2013-11-24 06:59:00,66.2,50.2,25.10,SE,128,5.4,5.4,54,0.00,,---,0.00,VWS V14.01,2013-11-24 12:59:00,
2013-11-24 07:04:00,66.9,50.2,25.10,SE,141,3.6,3.6,49,0.00,,---,0.00,VWS V14.01,2013-11-24 13:04:00,
2013-11-24 07:09:00,67.6,50.2,25.10,East,82,2.7,3.6,48,0.00,,---,0.00,VWS V14.01,2013-11-24 13:09:00,
2013-11-24 07:15:00,68.0,50.2,25.10,East,90,4.9,4.9,48,0.00,,---,0.00,VWS V14.01,2013-11-24 13:15:00,
2013-11-24 07:20:00,69.6,50.2,25.10,ENE,75,5.8,5.8,43,0.00,,---,0.00,VWS V14.01,2013-11-24 13:20:00,
2013-11-24 07:25:00,70.2,50.2,25.10,East,89,4.0,4.0,42,0.00,,---,0.00,VWS V14.01,2013-11-24 13:25:00,
2013-11-24 07:30:00,70.3,50.2,25.10,NE,52,3.1,4.9,43,0.00,,---,0.00,VWS V14.01,2013-11-24 13:30:00,
2013-11-24 07:35:00,70.2,50.2,25.10,SE,124,5.4,5.4,45,0.00,,---,0.00,VWS V14.01,2013-11-24 13:35:00,
2013-11-24 07:40:00,69.8,50.2,25.13,ENE,63,5.4,5.4,47,0.00,,---,0.00,VWS V14.01,2013-11-24 13:40:00,
2013-11-24 07:45:00,69.8,50.2,25.13,East,79,3.6,3.6,46,0.00,,---,0.00,VWS V14.01,2013-11-24 13:45:00,
2013-11-24 07:50:00,70.0,50.2,25.13,East,100,6.3,6.3,43,0.00,,---,0.00,VWS V14.01,2013-11-24 13:50:00,
2013-11-24 07:55:00,69.8,50.2,25.13,ESE,116,2.7,3.6,44,0.00,,---,0.00,VWS V14.01,2013-11-24 13:55:00,
2013-11-24 08:00:00,69.8,50.2,25.13,ENE,57,4.0,4.0,44,0.00,,---,0.00,VWS V14.01,2013-11-24 14:00:00,
2013-11-24 08:06:00,69.8,50.2,25.13,SSE,154,2.2,3.6,43,0.00,,---,0.00,VWS V14.01,2013-11-24 14:06:00,
2013-11-24 08:11:00,69.6,50.2,25.13,SE,140,2.7,4.0,45,0.00,,---,0.00,VWS V14.01,2013-11-24 14:11:00,
2013-11-24 08:16:00,69.3,50.2,25.13,NE,43,8.1,8.1,47,0.00,,---,0.00,VWS V14.01,2013-11-24 14:16:00,
2013-11-24 08:21:00,69.3,50.2,25.13,ENE,73,7.6,7.6,49,0.00,,---,0.00,VWS V14.01,2013-11-24 14:21:00,
2013-11-24 08:26:00,69.3,50.2,25.13,East,95,5.4,5.4,50,0.00,,---,0.00,VWS V14.01,2013-11-24 14:26:00,
2013-11-24 08:31:00,70.2,50.2,25.13,East,83,5.4,6.3,47,0.00,,---,0.00,VWS V14.01,2013-11-24 14:31:00,
2013-11-24 08:36:00,71.1,50.2,25.13,ESE,102,5.8,5.8,47,0.00,,---,0.00,VWS V14.01,2013-11-24 14:36:00,
2013-11-24 08:41:00,71.8,50.2,25.10,ENE,62,4.9,4.9,43,0.00,,---,0.00,VWS V14.01,2013-11-24 14:41:00,
2013-11-24 08:47:00,72.3,50.2,25.10,NNE,30,2.7,4.0,43,0.00,,---,0.00,VWS V14.01,2013-11-24 14:47:00,
2013-11-24 08:52:00,72.9,50.2,25.10,SE,131,2.2,2.2,42,0.00,,---,0.00,VWS V14.01,2013-11-24 14:52:00,
2013-11-24 08:57:00,73.4,50.2,25.10,SE,133,3.6,6.3,36,0.00,,---,0.00,VWS V14.01,2013-11-24 14:57:00,
2013-11-24 09:02:00,73.8,50.2,25.10,ENE,77,2.7,2.7,41,0.00,,---,0.00,VWS V14.01,2013-11-24 15:02:00,
2013-11-24 09:07:00,73.8,50.2,25.10,East,86,4.9,4.9,41,0.00,,---,0.00,VWS V14.01,2013-11-24 15:07:00,
2013-11-24 09:12:00,73.8,50.2,25.10,East,85,5.4,5.8,41,0.00,,---,0.00,VWS V14.01,2013-11-24 15:12:00,
2013-11-24 09:17:00,73.4,50.2,25.10,ESE,123,4.0,5.8,42,0.00,,---,0.00,VWS V14.01,2013-11-24 15:17:00,
2013-11-24 09:22:00,73.6,50.2,25.10,SE,133,5.4,5.8,38,0.00,,---,0.00,VWS V14.01,2013-11-24 15:22:00,
2013-11-24 09:27:00,73.6,50.2,25.10,SE,125,6.3,7.6,38,0.00,,---,0.00,VWS V14.01,2013-11-24 15:27:00,
2013-11-24 09:33:00,73.0,50.2,25.10,NE,55,3.6,6.3,40,0.00,,---,0.00,VWS V14.01,2013-11-24 15:33:00,
2013-11-24 09:38:00,73.0,50.2,25.10,ENE,60,4.0,6.3,40,0.00,,---,0.00,VWS V14.01,2013-11-24 15:38:00,
2013-11-24 09:43:00,73.2,50.2,25.10,ESE,119,6.3,6.3,37,0.00,,---,0.00,VWS V14.01,2013-11-24 15:43:00,
2013-11-24 09:48:00,73.6,50.2,25.10,East,85,7.6,7.6,37,0.00,,---,0.00,VWS V14.01,2013-11-24 15:48:00,
2013-11-24 09:53:00,73.8,50.2,25.10,SSE,168,3.1,3.1,38,0.00,,---,0.00,VWS V14.01,2013-11-24 15:53:00,
2013-11-24 09:58:00,73.8,50.2,25.10,East,101,5.4,5.4,38,0.00,,---,0.00,VWS V14.01,2013-11-24 15:58:00,
2013-11-24 10:03:00,73.9,50.2,25.10,SSE,165,5.8,5.8,36,0.00,,---,0.00,VWS V14.01,2013-11-24 16:03:00,
2013-11-24 10:08:00,73.4,50.2,25.10,SE,129,4.0,4.0,36,0.00,,---,0.00,VWS V14.01,2013-11-24 16:08:00,
2013-11-24 10:14:00,73.2,50.2,25.10,NE,51,3.1,7.6,41,0.00,,---,0.00,VWS V14.01,2013-11-24 16:14:00,
2013-11-24 10:19:00,73.4,50.2,25.10,NE,43,3.1,5.8,38,0.00,,---,0.00,VWS V14.01,2013-11-24 16:19:00,
2013-11-24 10:24:00,74.1,50.2,25.10,SE,139,2.7,2.7,43,0.00,,---,0.00,VWS V14.01,2013-11-24 16:24:00,
2013-11-24 10:29:00,75.0,51.0,25.10,ENE,75,4.9,4.9,43,0.00,,---,0.00,VWS V14.01,2013-11-24 16:29:00,
2013-11-24 10:34:00,75.6,51.0,25.10,NNW,335,5.4,5.4,40,0.00,,---,0.00,VWS V14.01,2013-11-24 16:34:00,
2013-11-24 10:39:00,74.7,51.0,25.10,NNE,15,3.1,4.0,41,0.00,,---,0.00,VWS V14.01,2013-11-24 16:39:00,
2013-11-24 10:44:00,73.8,51.0,25.10,East,91,4.0,5.4,43,0.00,,---,0.00,VWS V14.01,2013-11-24 16:44:00,
2013-11-24 10:49:00,72.0,51.0,25.10,ENE,72,4.0,4.0,45,0.00,,---,0.00,VWS V14.01,2013-11-24 16:49:00,
2013-11-24 10:55:00,71.2,51.0,25.10,ENE,74,2.7,3.6,46,0.00,,---,0.00,VWS V14.01,2013-11-24 16:55:00,
2013-11-24 11:00:00,70.7,50.1,25.10,NNE,33,3.6,5.4,48,0.00,,---,0.00,VWS V14.01,2013-11-24 17:00:00,
2013-11-24 11:05:00,70.9,50.2,25.07,NE,49,2.7,3.1,48,0.00,,---,0.00,VWS V14.01,2013-11-24 17:05:00,
2013-11-24 11:10:00,70.9,50.2,25.07,North,353,7.6,7.6,48,0.00,,---,0.00,VWS V14.01,2013-11-24 17:10:00,
2013-11-24 11:15:00,72.9,50.3,25.07,SE,126,2.2,3.1,44,0.00,,---,0.00,VWS V14.01,2013-11-24 17:15:00,
2013-11-24 11:20:00,72.9,50.3,25.07,NE,42,2.2,5.4,45,0.00,,---,0.00,VWS V14.01,2013-11-24 17:20:00,
2013-11-24 11:25:00,72.9,50.3,25.07,East,83,3.6,3.6,45,0.00,,---,0.00,VWS V14.01,2013-11-24 17:25:00,
2013-11-24 11:30:00,72.9,50.3,25.07,ESE,106,2.7,2.7,45,0.00,,---,0.00,VWS V14.01,2013-11-24 17:30:00,
2013-11-24 11:35:00,72.1,50.3,25.07,ESE,115,3.6,3.6,45,0.00,,---,0.00,VWS V14.01,2013-11-24 17:35:00,
2013-11-24 11:40:00,71.1,51.0,25.07,NE,49,3.6,3.6,49,0.00,,---,0.00,VWS V14.01,2013-11-24 17:40:00,
2013-11-24 11:45:00,70.7,50.1,25.07,ESE,103,5.4,5.4,48,0.00,,---,0.00,VWS V14.01,2013-11-24 17:45:00,
2013-11-24 11:50:00,70.5,50.5,25.07,ESE,116,7.6,7.6,49,0.00,,---,0.00,VWS V14.01,2013-11-24 17:50:00,
2013-11-24 11:56:00,69.6,50.2,25.07,ENE,60,2.2,3.1,50,0.00,,---,0.00,VWS V14.01,2013-11-24 17:56:00,
2013-11-24 12:01:00,69.1,51.2,25.07,NE,36,2.7,2.7,53,0.00,,---,0.00,VWS V14.01,2013-11-24 18:01:00,
2013-11-24 12:06:00,68.7,51.9,25.07,South,186,3.1,4.0,55,0.00,,---,0.00,VWS V14.01,2013-11-24 18:06:00,
2013-11-24 12:11:00,68.5,52.2,25.07,NE,50,3.1,3.1,56,0.00,,---,0.00,VWS V14.01,2013-11-24 18:11:00,
2013-11-24 12:16:00,68.5,51.8,25.07,ESE,118,3.1,3.1,55,0.00,,---,0.00,VWS V14.01,2013-11-24 18:16:00,
2013-11-24 12:21:00,68.5,51.8,25.07,East,96,4.0,4.0,55,0.00,,---,0.00,VWS V14.01,2013-11-24 18:21:00,
2013-11-24 12:26:00,70.3,51.4,25.07,ENE,71,4.0,4.0,51,0.00,,---,0.00,VWS V14.01,2013-11-24 18:26:00,
2013-11-24 12:31:00,70.9,51.3,25.07,NE,42,2.7,2.7,50,0.00,,---,0.00,VWS V14.01,2013-11-24 18:31:00,
2013-11-24 12:36:00,72.5,51.2,25.04,SE,139,3.6,3.6,47,0.00,,---,0.00,VWS V14.01,2013-11-24 18:36:00,
2013-11-24 12:42:00,73.2,50.6,25.04,NNE,27,4.0,6.3,45,0.00,,---,0.00,VWS V14.01,2013-11-24 18:42:00,
2013-11-24 12:47:00,73.6,51.0,25.04,East,93,2.7,3.1,45,0.00,,---,0.00,VWS V14.01,2013-11-24 18:47:00,
2013-11-24 12:52:00,73.2,50.0,25.04,East,90,2.7,3.6,44,0.00,,---,0.00,VWS V14.01,2013-11-24 18:52:00,
2013-11-24 12:57:00,72.1,50.2,25.04,East,101,4.0,4.0,46,0.00,,---,0.00,VWS V14.01,2013-11-24 18:57:00,
2013-11-24 13:02:00,71.6,50.9,25.04,East,94,2.7,2.7,48,0.00,,---,0.00,VWS V14.01,2013-11-24 19:02:00,
2013-11-24 13:07:00,71.6,50.3,25.04,ESE,122,3.1,3.1,47,0.00,,---,0.00,VWS V14.01,2013-11-24 19:07:00,
2013-11-24 13:12:00,72.7,53.0,25.04,ENE,74,3.6,5.4,50,0.00,,---,0.00,VWS V14.01,2013-11-24 19:12:00,
2013-11-24 13:17:00,73.6,50.3,25.04,ENE,57,3.1,3.6,44,0.00,,---,0.00,VWS V14.01,2013-11-24 19:17:00,
2013-11-24 13:22:00,72.5,50.0,25.04,East,88,0.0,0.0,45,0.00,,---,0.00,VWS V14.01,2013-11-24 19:22:00,
2013-11-24 13:27:00,71.6,50.0,25.04,NE,41,2.2,2.2,46,0.00,,---,0.00,VWS V14.01,2013-11-24 19:27:00,
2013-11-24 13:32:00,70.9,50.2,25.04,SSE,147,4.9,4.9,48,0.00,,---,0.00,VWS V14.01,2013-11-24 19:32:00,
2013-11-24 13:37:00,70.3,50.3,25.04,North,11,0.0,0.0,49,0.00,,---,0.00,VWS V14.01,2013-11-24 19:37:00,
2013-11-24 13:42:00,70.0,51.0,25.04,NNE,21,2.7,4.9,51,0.00,,---,0.00,VWS V14.01,2013-11-24 19:42:00,
2013-11-24 13:48:00,69.6,51.2,25.04,East,86,5.8,5.8,52,0.00,,---,0.00,VWS V14.01,2013-11-24 19:48:00,
2013-11-24 13:53:00,69.1,51.2,25.04,East,92,4.0,5.4,53,0.00,,---,0.00,VWS V14.01,2013-11-24 19:53:00,
2013-11-24 13:58:00,68.9,51.6,25.04,ENE,67,4.0,4.0,54,0.00,,---,0.00,VWS V14.01,2013-11-24 19:58:00,
2013-11-24 14:03:00,68.7,51.9,25.04,ESE,109,4.0,4.0,55,0.00,,---,0.00,VWS V14.01,2013-11-24 20:03:00,
2013-11-24 14:08:00,68.9,52.6,25.04,SE,137,2.2,2.2,56,0.00,,---,0.00,VWS V14.01,2013-11-24 20:08:00,
2013-11-24 14:13:00,69.1,52.2,25.04,ENE,61,2.2,2.2,55,0.00,,---,0.00,VWS V14.01,2013-11-24 20:13:00,
2013-11-24 14:18:00,69.1,52.2,25.04,SE,139,4.9,4.9,55,0.00,,---,0.00,VWS V14.01,2013-11-24 20:18:00,
2013-11-24 14:23:00,69.3,52.4,25.04,SE,133,2.7,4.9,55,0.00,,---,0.00,VWS V14.01,2013-11-24 20:23:00,
2013-11-24 14:28:00,69.3,51.9,25.04,ESE,113,4.0,5.8,54,0.00,,---,0.00,VWS V14.01,2013-11-24 20:28:00,
2013-11-24 14:34:00,69.3,51.9,25.04,East,87,4.0,4.0,54,0.00,,---,0.00,VWS V14.01,2013-11-24 20:34:00,
2013-11-24 14:39:00,69.1,52.2,25.04,East,100,4.0,4.5,55,0.00,,---,0.00,VWS V14.01,2013-11-24 20:39:00,
2013-11-24 14:44:00,68.7,52.9,25.04,NNE,26,2.7,3.6,57,0.00,,---,0.00,VWS V14.01,2013-11-24 20:44:00,
2013-11-24 14:49:00,68.5,52.7,25.04,NE,48,3.1,3.1,57,0.00,,---,0.00,VWS V14.01,2013-11-24 20:49:00,
2013-11-24 14:54:00,68.4,53.5,25.04,ESE,107,0.0,0.0,59,0.00,,---,0.00,VWS V14.01,2013-11-24 20:54:00,
2013-11-24 14:59:00,68.2,53.8,25.04,ESE,115,3.1,3.1,60,0.00,,---,0.00,VWS V14.01,2013-11-24 20:59:00,
2013-11-24 15:04:00,68.2,55.1,25.04,ESE,104,2.7,2.7,63,0.00,,---,0.00,VWS V14.01,2013-11-24 21:04:00,
2013-11-24 15:09:00,68.4,56.2,25.04,East,92,3.1,3.1,65,0.00,,---,0.00,VWS V14.01,2013-11-24 21:09:00,
2013-11-24 15:14:00,68.4,56.2,25.04,East,83,3.1,3.1,65,0.00,,---,0.00,VWS V14.01,2013-11-24 21:14:00,
2013-11-24 15:19:00,69.1,56.0,25.04,NE,51,3.1,3.1,63,0.00,,---,0.00,VWS V14.01,2013-11-24 21:19:00,
2013-11-24 15:25:00,69.3,55.2,25.04,NE,39,2.2,5.4,61,0.00,,---,0.00,VWS V14.01,2013-11-24 21:25:00,
2013-11-24 15:30:00,68.9,54.5,25.04,NNE,17,3.1,3.1,60,0.00,,---,0.00,VWS V14.01,2013-11-24 21:30:00,
2013-11-24 15:35:00,68.7,55.2,25.04,ESE,104,6.3,6.3,62,0.00,,---,0.00,VWS V14.01,2013-11-24 21:35:00,
2013-11-24 15:40:00,68.7,55.2,25.04,ESE,108,0.0,0.0,62,0.00,,---,0.00,VWS V14.01,2013-11-24 21:40:00,
2013-11-24 15:45:00,68.0,53.6,25.04,ESE,120,4.0,4.0,60,0.00,,---,0.00,VWS V14.01,2013-11-24 21:45:00,
2013-11-24 15:50:00,68.0,54.1,25.04,NE,50,3.6,4.0,61,0.00,,---,0.00,VWS V14.01,2013-11-24 21:50:00,
2013-11-24 15:55:00,68.0,54.5,25.04,East,91,4.0,4.0,62,0.00,,---,0.00,VWS V14.01,2013-11-24 21:55:00,
2013-11-24 16:01:00,68.0,54.5,25.04,ESE,107,4.9,4.9,62,0.00,,---,0.00,VWS V14.01,2013-11-24 22:01:00,
2013-11-24 16:06:00,68.0,54.5,25.04,ENE,71,4.0,4.0,62,0.00,,---,0.00,VWS V14.01,2013-11-24 22:06:00,
2013-11-24 16:11:00,68.0,53.6,25.04,ESE,104,5.4,5.4,60,0.00,,---,0.00,VWS V14.01,2013-11-24 22:11:00,
2013-11-24 16:16:00,67.5,54.0,25.04,SE,129,4.0,4.0,62,0.00,,---,0.00,VWS V14.01,2013-11-24 22:16:00,
2013-11-24 16:21:00,67.5,54.4,25.04,East,101,2.2,2.2,63,0.00,,---,0.00,VWS V14.01,2013-11-24 22:21:00,
2013-11-24 16:26:00,67.3,54.3,25.04,East,80,2.7,2.7,63,0.00,,---,0.00,VWS V14.01,2013-11-24 22:26:00,
2013-11-24 16:31:00,67.3,53.8,25.04,East,87,4.0,4.0,62,0.00,,---,0.00,VWS V14.01,2013-11-24 22:31:00,
2013-11-24 16:36:00,67.1,53.7,25.04,ESE,105,4.0,4.0,62,0.00,,---,0.00,VWS V14.01,2013-11-24 22:36:00,
2013-11-24 16:41:00,66.4,52.1,25.04,NNE,31,3.6,3.6,60,0.00,,---,0.00,VWS V14.01,2013-11-24 22:41:00,
2013-11-24 16:46:00,66.2,51.5,25.04,SSE,154,3.1,3.1,59,0.00,,---,0.00,VWS V14.01,2013-11-24 22:46:00,
2013-11-24 16:51:00,65.8,52.5,25.04,ESE,109,5.4,5.4,62,0.00,,---,0.00,VWS V14.01,2013-11-24 22:51:00,
2013-11-24 16:57:00,65.7,51.9,25.04,East,99,3.6,3.6,61,0.00,,---,0.00,VWS V14.01,2013-11-24 22:57:00,
2013-11-24 17:02:00,65.5,51.7,25.04,SE,138,4.9,5.4,61,0.00,,---,0.00,VWS V14.01,2013-11-24 23:02:00,
2013-11-24 17:07:00,65.5,51.7,25.07,ESE,119,5.4,5.4,61,0.00,,---,0.00,VWS V14.01,2013-11-24 23:07:00,
2013-11-24 17:12:00,65.7,51.9,25.07,ESE,105,2.7,2.7,61,0.00,,---,0.00,VWS V14.01,2013-11-24 23:12:00,
2013-11-24 17:17:00,65.5,52.6,25.07,ESE,120,3.6,4.0,63,0.00,,---,0.00,VWS V14.01,2013-11-24 23:17:00,
2013-11-24 17:22:00,65.3,52.8,25.07,East,97,2.7,2.7,64,0.00,,---,0.00,VWS V14.01,2013-11-24 23:22:00,
2013-11-24 17:27:00,65.1,53.5,25.07,ESE,111,5.8,5.8,66,0.00,,---,0.00,VWS V14.01,2013-11-24 23:27:00,
2013-11-24 17:32:00,65.1,53.9,25.07,East,93,4.0,4.0,67,0.00,,---,0.00,VWS V14.01,2013-11-24 23:32:00,
2013-11-24 17:38:00,65.1,53.9,25.07,East,83,3.6,3.6,67,0.00,,---,0.00,VWS V14.01,2013-11-24 23:38:00,
2013-11-24 17:43:00,64.4,55.2,25.07,East,84,3.1,3.6,72,0.00,,---,0.00,VWS V14.01,2013-11-24 23:43:00,
2013-11-24 17:48:00,64.4,55.2,25.07,East,89,3.1,3.1,72,0.00,,---,0.00,VWS V14.01,2013-11-24 23:48:00,
2013-11-24 17:53:00,64.2,56.1,25.07,East,90,2.2,3.1,75,0.00,,---,0.00,VWS V14.01,2013-11-24 23:53:00,
2013-11-24 17:58:00,64.0,56.0,25.07,SE,130,0.0,0.0,75,0.00,,---,0.00,VWS V14.01,2013-11-24 23:58:00,
2013-11-24 18:03:00,64.0,56.3,25.07,ENE,78,2.2,2.2,76,0.00,,---,0.00,VWS V14.01,2013-11-25 00:03:00,
2013-11-24 18:08:00,63.9,56.2,25.07,NE,39,2.2,2.2,76,0.00,,---,0.00,VWS V14.01,2013-11-25 00:08:00,
2013-11-24 18:13:00,63.9,55.8,25.07,NE,47,2.2,2.2,75,0.00,,---,0.00,VWS V14.01,2013-11-25 00:13:00,
2013-11-24 18:18:00,64.0,56.0,25.07,ESE,118,3.6,3.6,75,0.00,,---,0.00,VWS V14.01,2013-11-25 00:18:00,
2013-11-24 18:23:00,64.0,55.6,25.07,East,92,5.8,5.8,74,0.00,,---,0.00,VWS V14.01,2013-11-25 00:23:00,
2013-11-24 18:28:00,64.2,55.8,25.07,SE,143,2.7,2.7,74,0.00,,---,0.00,VWS V14.01,2013-11-25 00:28:00,
2013-11-24 18:33:00,64.2,55.4,25.10,East,87,5.8,5.8,73,0.00,,---,0.00,VWS V14.01,2013-11-25 00:33:00,
2013-11-24 18:39:00,64.4,54.4,25.10,SSE,155,5.8,5.8,70,0.00,,---,0.00,VWS V14.01,2013-11-25 00:39:00,
2013-11-24 18:44:00,64.6,54.2,25.10,East,96,4.0,4.9,69,0.00,,---,0.00,VWS V14.01,2013-11-25 00:44:00,
2013-11-24 18:49:00,64.6,53.8,25.10,South,186,3.1,3.6,68,0.00,,---,0.00,VWS V14.01,2013-11-25 00:49:00,
2013-11-24 18:54:00,64.6,53.0,25.10,ESE,105,4.9,4.9,66,0.00,,---,0.00,VWS V14.01,2013-11-25 00:54:00,
2013-11-24 18:59:00,64.8,53.2,25.10,East,81,2.2,2.2,66,0.00,,---,0.00,VWS V14.01,2013-11-25 00:59:00,
2013-11-24 19:04:00,64.8,53.2,25.10,NNE,12,2.7,2.7,66,0.00,,---,0.00,VWS V14.01,2013-11-25 01:04:00,
2013-11-24 19:09:00,64.4,54.4,25.10,East,98,0.0,2.7,70,0.00,,---,0.00,VWS V14.01,2013-11-25 01:09:00,
2013-11-24 19:14:00,64.2,54.6,25.10,East,98,2.2,2.2,71,0.00,,---,0.00,VWS V14.01,2013-11-25 01:14:00,
2013-11-24 19:20:00,64.0,55.6,25.10,East,82,2.7,4.0,74,0.00,,---,0.00,VWS V14.01,2013-11-25 01:20:00,
2013-11-24 19:25:00,63.9,56.5,25.10,ESE,110,3.1,3.1,77,0.00,,---,0.00,VWS V14.01,2013-11-25 01:25:00,
2013-11-24 19:30:00,63.7,55.6,25.10,East,101,3.1,3.1,75,0.00,,---,0.00,VWS V14.01,2013-11-25 01:30:00,
2013-11-24 19:35:00,63.9,55.0,25.10,SE,145,4.0,4.9,73,0.00,,---,0.00,VWS V14.01,2013-11-25 01:35:00,
2013-11-24 19:40:00,63.9,54.3,25.10,SE,130,0.0,0.0,71,0.00,,---,0.00,VWS V14.01,2013-11-25 01:40:00,
2013-11-24 19:45:00,64.0,54.5,25.10,ESE,103,0.0,0.0,71,0.00,,---,0.00,VWS V14.01,2013-11-25 01:45:00,
2013-11-24 19:50:00,64.0,53.7,25.10,ESE,102,4.0,4.0,69,0.00,,---,0.00,VWS V14.01,2013-11-25 01:50:00,
2013-11-24 19:55:00,64.2,53.8,25.10,East,95,2.7,3.1,69,0.00,,---,0.00,VWS V14.01,2013-11-25 01:55:00,
2013-11-24 20:00:00,64.2,53.8,25.10,East,95,0.0,0.0,69,0.00,,---,0.00,VWS V14.01,2013-11-25 02:00:00,
2013-11-24 20:06:00,64.2,53.8,25.10,SE,124,4.5,4.5,69,0.00,,---,0.00,VWS V14.01,2013-11-25 02:06:00,
2013-11-24 20:11:00,64.2,53.0,25.07,South,182,2.2,2.7,67,0.00,,---,0.00,VWS V14.01,2013-11-25 02:11:00,
2013-11-24 20:16:00,64.0,52.0,25.07,SE,136,7.6,7.6,65,0.00,,---,0.00,VWS V14.01,2013-11-25 02:16:00,
2013-11-24 20:21:00,64.2,51.4,25.07,South,176,0.0,0.0,63,0.00,,---,0.00,VWS V14.01,2013-11-25 02:21:00,
2013-11-24 20:26:00,64.4,50.7,25.10,SW,235,5.4,5.4,61,0.00,,---,0.00,VWS V14.01,2013-11-25 02:26:00,
2013-11-24 20:31:00,64.4,50.7,25.10,East,100,5.4,5.4,61,0.00,,---,0.00,VWS V14.01,2013-11-25 02:31:00,
2013-11-24 20:36:00,64.8,50.7,25.10,SSE,163,5.4,5.4,56,0.00,,---,0.00,VWS V14.01,2013-11-25 02:36:00,
2013-11-24 20:41:00,64.9,50.7,25.10,SE,139,3.6,5.4,57,0.00,,---,0.00,VWS V14.01,2013-11-25 02:41:00,
2013-11-24 20:46:00,64.8,50.7,25.10,South,176,5.4,6.3,57,0.00,,---,0.00,VWS V14.01,2013-11-25 02:46:00,
2013-11-24 20:51:00,64.8,50.7,25.13,East,84,2.7,4.0,58,0.00,,---,0.00,VWS V14.01,2013-11-25 02:51:00,
2013-11-24 20:56:00,64.6,50.7,25.13,SSW,204,2.7,2.7,59,0.00,,---,0.00,VWS V14.01,2013-11-25 02:56:00,
2013-11-24 21:01:00,64.4,50.7,25.13,SE,132,4.0,4.0,61,0.00,,---,0.00,VWS V14.01,2013-11-25 03:01:00,
2013-11-24 21:06:00,64.2,50.5,25.13,East,93,4.9,4.9,61,0.00,,---,0.00,VWS V14.01,2013-11-25 03:06:00,
2013-11-24 21:11:00,64.0,50.8,25.13,SE,124,5.4,5.4,62,0.00,,---,0.00,VWS V14.01,2013-11-25 03:11:00,
2013-11-24 21:16:00,63.9,51.0,25.13,ENE,57,2.2,2.2,63,0.00,,---,0.00,VWS V14.01,2013-11-25 03:16:00,
2013-11-24 21:21:00,63.7,50.9,25.13,South,177,6.3,6.3,63,0.00,,---,0.00,VWS V14.01,2013-11-25 03:21:00,
2013-11-24 21:26:00,63.9,50.2,25.13,South,175,0.0,0.0,61,0.00,,---,0.00,VWS V14.01,2013-11-25 03:26:00,
2013-11-24 21:31:00,63.7,50.4,25.13,ENE,62,3.6,5.8,62,0.00,,---,0.00,VWS V14.01,2013-11-25 03:31:00,
2013-11-24 21:36:00,63.9,50.6,25.13,ENE,62,3.6,3.6,62,0.00,,---,0.00,VWS V14.01,2013-11-25 03:36:00,
2013-11-24 21:42:00,63.7,50.9,25.13,East,95,2.7,2.7,63,0.00,,---,0.00,VWS V14.01,2013-11-25 03:42:00,
2013-11-24 21:47:00,63.7,50.9,25.13,SSE,157,3.1,3.1,63,0.00,,---,0.00,VWS V14.01,2013-11-25 03:47:00,
2013-11-24 21:52:00,63.5,51.1,25.13,East,83,3.6,3.6,64,0.00,,---,0.00,VWS V14.01,2013-11-25 03:52:00,
2013-11-24 21:57:00,63.5,51.1,25.13,East,81,2.7,2.7,64,0.00,,---,0.00,VWS V14.01,2013-11-25 03:57:00,
2013-11-24 22:02:00,63.7,51.3,25.13,NE,48,2.7,2.7,64,0.00,,---,0.00,VWS V14.01,2013-11-25 04:02:00,
2013-11-24 22:07:00,63.7,51.3,25.13,NE,48,2.7,2.7,64,0.00,,---,0.00,VWS V14.01,2013-11-25 04:07:00,
2013-11-24 22:12:00,63.9,51.5,25.13,ESE,108,2.2,2.2,64,0.00,,---,0.00,VWS V14.01,2013-11-25 04:12:00,
2013-11-24 22:18:00,63.9,51.0,25.13,ESE,120,0.0,0.0,63,0.00,,---,0.00,VWS V14.01,2013-11-25 04:18:00,
2013-11-24 22:23:00,63.9,51.0,25.13,ESE,107,9.6,9.6,63,0.00,,---,0.00,VWS V14.01,2013-11-25 04:23:00,
2013-11-24 22:28:00,63.9,51.0,25.13,South,174,3.1,3.1,63,0.00,,---,0.00,VWS V14.01,2013-11-25 04:28:00,
2013-11-24 22:33:00,63.9,51.0,25.13,South,172,2.2,2.2,63,0.00,,---,0.00,VWS V14.01,2013-11-25 04:33:00,
2013-11-24 22:38:00,63.7,50.9,25.13,East,91,3.1,3.1,63,0.00,,---,0.00,VWS V14.01,2013-11-25 04:38:00,
2013-11-24 22:43:00,63.7,51.3,25.13,NE,56,3.1,3.1,64,0.00,,---,0.00,VWS V14.01,2013-11-25 04:43:00,
2013-11-24 22:48:00,63.5,51.1,25.13,ESE,108,2.2,2.2,64,0.00,,---,0.00,VWS V14.01,2013-11-25 04:48:00,
2013-11-24 22:53:00,63.5,51.1,25.13,SE,126,0.0,0.0,64,0.00,,---,0.00,VWS V14.01,2013-11-25 04:53:00,
2013-11-24 22:59:00,63.3,51.8,25.13,East,97,4.9,4.9,66,0.00,,---,0.00,VWS V14.01,2013-11-25 04:59:00,
2013-11-24 23:01:00,63.1,52.0,25.13,ENE,65,3.6,3.6,67,0.00,,---,0.00,VWS V14.01,2013-11-25 05:01:00,
2013-11-24 23:02:00,63.1,52.0,25.13,East,80,4.9,4.9,67,0.00,,---,0.00,VWS V14.01,2013-11-25 05:02:00,
2013-11-24 23:03:00,63.1,52.4,25.13,East,80,4.9,4.9,68,0.00,,---,0.00,VWS V14.01,2013-11-25 05:03:00,
2013-11-24 23:08:00,63.1,52.4,25.10,NE,35,0.0,0.0,68,0.00,,---,0.00,VWS V14.01,2013-11-25 05:08:00,
2013-11-24 23:13:00,62.8,52.1,25.10,NE,35,0.0,0.0,68,0.00,,---,0.00,VWS V14.01,2013-11-25 05:13:00,
2013-11-24 23:18:00,62.4,51.7,25.10,SE,130,4.9,4.9,68,0.00,,---,0.00,VWS V14.01,2013-11-25 05:18:00,
2013-11-24 23:23:00,62.8,51.7,25.10,SSE,160,2.7,2.7,67,0.00,,---,0.00,VWS V14.01,2013-11-25 05:23:00,
2013-11-24 23:28:00,63.1,50.8,25.10,ESE,104,3.6,3.6,64,0.00,,---,0.00,VWS V14.01,2013-11-25 05:28:00,
2013-11-24 23:34:00,63.1,50.3,25.10,SE,124,2.7,2.7,63,0.00,,---,0.00,VWS V14.01,2013-11-25 05:34:00,
2013-11-24 23:39:00,63.1,50.3,25.10,East,93,2.7,2.7,62,0.00,,---,0.00,VWS V14.01,2013-11-25 05:39:00,
2013-11-24 23:44:00,63.3,50.3,25.10,SSE,168,2.7,2.7,61,0.00,,---,0.00,VWS V14.01,2013-11-25 05:44:00,
2013-11-24 23:49:00,63.3,50.3,25.10,East,83,3.6,4.5,61,0.00,,---,0.00,VWS V14.01,2013-11-25 05:49:00,
2013-11-24 23:54:00,63.3,50.1,25.10,SSE,157,2.7,2.7,62,0.00,,---,0.00,VWS V14.01,2013-11-25 05:54:00,
2013-11-24 23:59:00,63.0,50.2,25.10,East,79,3.1,3.1,63,0.00,,---,0.00,VWS V14.01,2013-11-25 05:59:00,